Latest Weather Observations for Frankston Beach

IDV60901

Issued at 6:41 pm EST Monday 4 May 2026 (issued every 10 minutes, with the page automatically refreshed every 10 minutes)

About weather observations | Map of Melbourne area stations | Latest observations for Melbourne area | Other Formats
Station Details ID: 086371 Name: FRANKSTON BEACH Lat: -38.15 Lon: 145.12 Height: 6.0 m
Data from the previous 72 hours. | See also: Recent months at Frankston Beach
Date/Time
EST
Temp
°C
App
Temp
°C
Dew
Point
°C
Rel
Hum
%
Delta-T
°C
Wind Press
QNH
hPa
Press
MSL
hPa
Rain since
9am
mm
Dir  Spd
km/h
Gust
km/h
Spd
kts
Gust
kts
04/06:30pm - - - - - N 41 50 22 27 - - -
04/06:00pm - - - - - N 41 52 22 28 - - -
04/05:30pm - - - - - N 39 50 21 27 - - -
04/05:00pm - - - - - N 39 52 21 28 - - -
04/04:30pm - - - - - N 43 57 23 31 - - -
04/04:00pm - - - - - N 39 50 21 27 - - -
04/03:30pm - - - - - N 41 52 22 28 - - -
04/03:00pm - - - - - N 41 50 22 27 - - -
04/02:30pm - - - - - N 43 52 23 28 - - -
04/02:00pm - - - - - N 41 52 22 28 - - -
04/01:30pm - - - - - N 43 52 23 28 - - -
04/01:00pm - - - - - N 39 48 21 26 - - -
04/12:30pm - - - - - N 43 52 23 28 - - -
04/12:00pm - - - - - N 41 52 22 28 - - -
04/11:30am - - - - - N 39 48 21 26 - - -
04/11:00am - - - - - N 43 52 23 28 - - -
04/10:30am - - - - - N 39 48 21 26 - - -
04/10:00am - - - - - N 37 48 20 26 - - -
04/09:30am - - - - - N 35 43 19 23 - - -
04/09:00am - - - - - N 32 39 17 21 - - -
04/08:30am - - - - - N 20 30 11 16 - - -
04/08:00am - - - - - NNE 19 24 10 13 - - -
04/07:30am - - - - - NNE 13 20 7 11 - - -
04/07:00am - - - - - NNE 13 19 7 10 - - -
04/06:30am - - - - - NNE 15 19 8 10 - - -
04/06:00am - - - - - NE 11 17 6 9 - - -
04/05:30am - - - - - NE 17 26 9 14 - - -
04/05:00am - - - - - NE 13 19 7 10 - - -
04/04:30am - - - - - NNE 15 19 8 10 - - -
04/04:00am - - - - - NNE 13 20 7 11 - - -
04/03:30am - - - - - NNE 15 22 8 12 - - -
04/03:00am - - - - - NNE 17 24 9 13 - - -
04/02:30am - - - - - NNE 13 17 7 9 - - -
04/02:00am - - - - - NNE 13 17 7 9 - - -
04/01:30am - - - - - NNE 17 24 9 13 - - -
04/01:00am - - - - - NNE 17 24 9 13 - - -
04/12:30am - - - - - NNE 15 24 8 13 - - -
04/12:00am - - - - - N 26 30 14 16 - - -
 
Date/Time
EST
Temp
°C
App
Temp
°C
Dew
Point
°C
Rel
Hum
%
Delta-T
°C
Wind Press
QNH
hPa
Press
MSL
hPa
Rain since
9am
mm
Dir  Spd
km/h
Gust
km/h
Spd
kts
Gust
kts
03/11:30pm - - - - - N 28 33 15 18 - - -
03/11:00pm - - - - - N 30 35 16 19 - - -
03/10:30pm - - - - - N 24 30 13 16 - - -
03/10:00pm - - - - - NNE 13 26 7 14 - - -
03/09:30pm - - - - - N 22 28 12 15 - - -
03/09:00pm - - - - - NNE 17 22 9 12 - - -
03/08:30pm - - - - - N 15 24 8 13 - - -
03/08:00pm - - - - - NNE 13 19 7 10 - - -
03/07:30pm - - - - - N 20 26 11 14 - - -
03/07:00pm - - - - - NNW 24 28 13 15 - - -
03/06:30pm - - - - - NW 17 20 9 11 - - -
03/06:00pm - - - - - NW 15 19 8 10 - - -
03/05:30pm - - - - - NW 22 28 12 15 - - -
03/05:00pm - - - - - NW 24 33 13 18 - - -
03/04:30pm - - - - - NNW 19 24 10 13 - - -
03/04:00pm - - - - - NNW 19 24 10 13 - - -
03/03:30pm - - - - - N 13 19 7 10 - - -
03/03:00pm - - - - - W 11 15 6 8 - - -
03/02:30pm - - - - - W 26 32 14 17 - - -
03/02:00pm - - - - - NNW 22 33 12 18 - - -
03/01:30pm - - - - - N 30 39 16 21 - - -
03/01:00pm - - - - - N 32 43 17 23 - - -
03/12:30pm - - - - - N 24 32 13 17 - - -
03/12:00pm - - - - - N 24 33 13 18 - - -
03/11:30am - - - - - NNE 24 35 13 19 - - -
03/11:00am - - - - - NE 22 35 12 19 - - -
03/10:30am - - - - - NNE 26 35 14 19 - - -
03/10:00am - - - - - N 33 44 18 24 - - -
03/09:30am - - - - - N 33 48 18 26 - - -
03/09:00am - - - - - NNE 22 35 12 19 - - -
03/08:30am - - - - - NNE 24 37 13 20 - - -
03/08:00am - - - - - NNE 24 35 13 19 - - -
03/07:30am - - - - - NNE 17 28 9 15 - - -
03/07:00am - - - - - NNE 26 37 14 20 - - -
03/06:30am - - - - - N 33 41 18 22 - - -
03/06:00am - - - - - NNE 20 33 11 18 - - -
03/05:30am - - - - - NNE 17 26 9 14 - - -
03/05:00am - - - - - N 20 28 11 15 - - -
03/04:30am - - - - - NNE 15 20 8 11 - - -
03/04:00am - - - - - ENE 11 15 6 8 - - -
03/03:30am - - - - - E 9 13 5 7 - - -
03/03:00am - - - - - E 9 11 5 6 - - -
03/02:30am - - - - - E 11 15 6 8 - - -
03/02:00am - - - - - SE 9 11 5 6 - - -
03/01:30am - - - - - SE 9 13 5 7 - - -
03/01:00am - - - - - S 4 7 2 4 - - -
03/12:30am - - - - - CALM 0 0 0 0 - - -
03/12:00am - - - - - CALM 0 6 0 3 - - -
 
Date/Time
EST
Temp
°C
App
Temp
°C
Dew
Point
°C
Rel
Hum
%
Delta-T
°C
Wind Press
QNH
hPa
Press
MSL
hPa
Rain since
9am
mm
Dir  Spd
km/h
Gust
km/h
Spd
kts
Gust
kts
02/11:30pm - - - - - N 6 9 3 5 - - -
02/11:00pm - - - - - NNE 7 9 4 5 - - -
02/10:30pm - - - - - NNE 9 13 5 7 - - -
02/10:00pm - - - - - ENE 9 13 5 7 - - -
02/09:30pm - - - - - NE 9 15 5 8 - - -
02/09:00pm - - - - - NE 11 19 6 10 - - -
02/08:30pm - - - - - NE 15 24 8 13 - - -
02/08:00pm - - - - - NNE 15 20 8 11 - - -
02/07:30pm - - - - - NE 13 20 7 11 - - -
02/07:00pm - - - - - NE 13 19 7 10 - - -
02/06:30pm - - - - - NE 13 19 7 10 - - -
02/06:00pm - - - - - NNE 13 19 7 10 - - -
02/05:30pm - - - - - NNE 13 22 7 12 - - -
02/05:00pm - - - - - NNE 17 26 9 14 - - -
02/04:30pm - - - - - NNE 19 28 10 15 - - -
02/04:00pm - - - - - NNE 20 32 11 17 - - -
02/03:30pm - - - - - NNE 17 30 9 16 - - -
02/03:00pm - - - - - NNE 19 30 10 16 - - -
02/02:30pm - - - - - NNE 19 28 10 15 - - -
02/02:00pm - - - - - NE 19 32 10 17 - - -
02/01:30pm - - - - - NNE 20 30 11 16 - - -
02/01:00pm - - - - - NNE 22 37 12 20 - - -
02/12:30pm - - - - - NNE 22 30 12 16 - - -
02/12:00pm - - - - - NNE 22 35 12 19 - - -
02/11:30am - - - - - NNE 20 35 11 19 - - -
02/11:00am - - - - - NNE 19 30 10 16 - - -
02/10:30am - - - - - NNE 15 20 8 11 - - -
02/10:00am - - - - - NNE 17 24 9 13 - - -
02/09:30am - - - - - NNE 22 30 12 16 - - -
02/09:00am - - - - - NNE 17 26 9 14 - - -
02/08:30am - - - - - NNE 15 24 8 13 - - -
02/08:00am - - - - - NE 13 22 7 12 - - -
02/07:30am - - - - - ENE 9 13 5 7 - - -
02/07:00am - - - - - E 11 15 6 8 - - -
02/06:30am - - - - - E 13 17 7 9 - - -
02/06:00am - - - - - E 13 17 7 9 - - -
02/05:30am - - - - - E 13 15 7 8 - - -
02/05:00am - - - - - E 11 15 6 8 - - -
02/04:30am - - - - - E 11 15 6 8 - - -
02/04:00am - - - - - E 11 13 6 7 - - -
02/03:30am - - - - - E 9 15 5 8 - - -
02/03:00am - - - - - E 13 19 7 10 - - -
02/02:30am - - - - - E 13 17 7 9 - - -
02/02:00am - - - - - E 13 17 7 9 - - -
02/01:30am - - - - - E 13 19 7 10 - - -
02/01:00am - - - - - E 13 19 7 10 - - -
02/12:30am - - - - - E 15 20 8 11 - - -
02/12:00am - - - - - E 15 19 8 10 - - -
 
Date/Time
EST
Temp
°C
App
Temp
°C
Dew
Point
°C
Rel
Hum
%
Delta-T
°C
Wind Press
QNH
hPa
Press
MSL
hPa
Rain since
9am
mm
Dir  Spd
km/h
Gust
km/h
Spd
kts
Gust
kts
01/11:30pm - - - - - E 13 17 7 9 - - -
01/11:00pm - - - - - E 13 17 7 9 - - -
01/10:30pm - - - - - E 13 17 7 9 - - -
01/10:00pm - - - - - E 13 17 7 9 - - -
01/09:30pm - - - - - E 13 17 7 9 - - -
01/09:00pm - - - - - E 13 17 7 9 - - -
01/08:30pm - - - - - ENE 13 19 7 10 - - -
01/08:00pm - - - - - ENE 11 17 6 9 - - -
01/07:30pm - - - - - ENE 13 17 7 9 - - -
01/07:00pm - - - - - ENE 9 13 5 7 - - -

Latest Capital City Observations: Canberra | Sydney | Melbourne | Brisbane | Adelaide | Perth | Hobart | Darwin

Other formats

Comma delimited format used in spreadsheet applications
http://www.bom.gov.au/fwo/IDV60901/IDV60901.94871.axf

JavaScript Object Notation format (JSON) in row-major order
http://www.bom.gov.au/fwo/IDV60901/IDV60901.94871.json

Data quality

Most of these data are generated automatically and are frequently updated. Quality checks on data are not normally performed. It is possible for incorrect values to appear. Refer to information at About Latest Weather Observations and please check the disclaimer before using these data.